sensor_id;sensor_type;location;lat;lon;timestamp;pressure;altitude;pressure_sealevel;temperature;humidity
23241;BME280;11789;53.482;9.862;2023-08-20T00:00:06;102115.28;;;18.35;100.00
23241;BME280;11789;53.482;9.862;2023-08-20T00:02:35;102119.59;;;18.37;100.00
23241;BME280;11789;53.482;9.862;2023-08-20T00:05:02;102125.69;;;18.38;100.00
23241;BME280;11789;53.482;9.862;2023-08-20T00:07:30;102125.75;;;18.33;100.00
23241;BME280;11789;53.482;9.862;2023-08-20T00:09:56;102130.19;;;18.30;100.00
23241;BME280;11789;53.482;9.862;2023-08-20T00:12:22;102126.62;;;18.34;100.00
23241;BME280;11789;53.482;9.862;2023-08-20T00:15:07;102131.00;;;18.35;100.00
23241;BME280;11789;53.482;9.862;2023-08-20T00:17:35;102126.56;;;18.38;100.00
23241;BME280;11789;53.482;9.862;2023-08-20T00:20:02;102127.44;;;18.39;100.00
23241;BME280;11789;53.482;9.862;2023-08-20T00:22:34;102123.94;;;18.40;100.00
23241;BME280;11789;53.482;9.862;2023-08-20T00:25:00;102127.47;;;18.37;100.00
23241;BME280;11789;53.482;9.862;2023-08-20T00:27:26;102133.59;;;18.36;100.00
23241;BME280;11789;53.482;9.862;2023-08-20T00:29:51;102131.03;;;18.29;100.00
23241;BME280;11789;53.482;9.862;2023-08-20T00:32:16;102127.63;;;18.24;100.00
23241;BME280;11789;53.482;9.862;2023-08-20T00:34:42;102136.41;;;18.18;100.00
23241;BME280;11789;53.482;9.862;2023-08-20T00:37:07;102134.69;;;18.17;100.00
23241;BME280;11789;53.482;9.862;2023-08-20T00:39:33;102136.50;;;18.12;100.00
23241;BME280;11789;53.482;9.862;2023-08-20T00:41:58;102137.38;;;18.09;100.00
23241;BME280;11789;53.482;9.862;2023-08-20T00:44:24;102143.50;;;18.11;100.00
23241;BME280;11789;53.482;9.862;2023-08-20T00:46:50;102149.69;;;18.03;100.00
23241;BME280;11789;53.482;9.862;2023-08-20T00:49:16;102148.81;;;18.02;100.00
23241;BME280;11789;53.482;9.862;2023-08-20T00:51:42;102148.03;;;17.96;100.00
23241;BME280;11789;53.482;9.862;2023-08-20T00:54:08;102148.06;;;17.93;100.00
23241;BME280;11789;53.482;9.862;2023-08-20T00:56:34;102150.62;;;17.94;100.00
23241;BME280;11789;53.482;9.862;2023-08-20T00:58:59;102148.94;;;17.95;100.00
23241;BME280;11789;53.482;9.862;2023-08-20T01:01:25;102158.50;;;17.94;100.00
23241;BME280;11789;53.482;9.862;2023-08-20T01:03:51;102154.19;;;17.88;100.00
23241;BME280;11789;53.482;9.862;2023-08-20T01:06:36;102150.75;;;17.85;100.00
23241;BME280;11789;53.482;9.862;2023-08-20T01:09:29;102145.53;;;17.85;100.00
23241;BME280;11789;53.482;9.862;2023-08-20T01:12:02;102151.72;;;17.72;100.00
23241;BME280;11789;53.482;9.862;2023-08-20T01:14:28;102151.75;;;17.70;100.00
23241;BME280;11789;53.482;9.862;2023-08-20T01:16:53;102152.63;;;17.68;100.00
23241;BME280;11789;53.482;9.862;2023-08-20T01:19:21;102157.03;;;17.62;100.00
23241;BME280;11789;53.482;9.862;2023-08-20T01:27:49;102152.66;;;17.63;100.00
23241;BME280;11789;53.482;9.862;2023-08-20T01:30:18;102147.50;;;17.60;100.00
23241;BME280;11789;53.482;9.862;2023-08-20T01:32:46;102153.59;;;17.57;100.00
23241;BME280;11789;53.482;9.862;2023-08-20T01:35:13;102152.75;;;17.55;100.00
23241;BME280;11789;53.482;9.862;2023-08-20T01:37:42;102151.91;;;17.55;100.00
23241;BME280;11789;53.482;9.862;2023-08-20T01:40:08;102155.41;;;17.54;100.00
23241;BME280;11789;53.482;9.862;2023-08-20T01:42:37;102151.91;;;17.52;100.00
23241;BME280;11789;53.482;9.862;2023-08-20T01:45:03;102155.41;;;17.51;100.00
23241;BME280;11789;53.482;9.862;2023-08-20T01:47:29;102158.03;;;17.51;100.00
23241;BME280;11789;53.482;9.862;2023-08-20T01:49:54;102155.37;;;17.52;100.00
23241;BME280;11789;53.482;9.862;2023-08-20T01:52:20;102157.12;;;17.53;100.00
23241;BME280;11789;53.482;9.862;2023-08-20T01:54:45;102149.38;;;17.44;100.00
23241;BME280;11789;53.482;9.862;2023-08-20T01:57:11;102152.00;;;17.43;100.00
23241;BME280;11789;53.482;9.862;2023-08-20T01:59:36;102145.84;;;17.50;100.00
23241;BME280;11789;53.482;9.862;2023-08-20T02:02:02;102154.50;;;17.55;100.00
23241;BME280;11789;53.482;9.862;2023-08-20T02:04:27;102153.69;;;17.47;100.00
23241;BME280;11789;53.482;9.862;2023-08-20T02:06:53;102149.34;;;17.47;100.00
23241;BME280;11789;53.482;9.862;2023-08-20T02:09:18;102159.78;;;17.50;100.00
23241;BME280;11789;53.482;9.862;2023-08-20T02:11:45;102152.00;;;17.44;100.00
23241;BME280;11789;53.482;9.862;2023-08-20T02:14:10;102154.59;;;17.43;100.00
23241;BME280;11789;53.482;9.862;2023-08-20T02:16:35;102157.19;;;17.46;100.00
23241;BME280;11789;53.482;9.862;2023-08-20T02:19:02;102158.03;;;17.48;100.00
23241;BME280;11789;53.482;9.862;2023-08-20T02:21:28;102161.63;;;17.36;100.00
23241;BME280;11789;53.482;9.862;2023-08-20T02:23:54;102155.63;;;17.26;100.00
23241;BME280;11789;53.482;9.862;2023-08-20T02:26:19;102152.16;;;17.24;100.00
23241;BME280;11789;53.482;9.862;2023-08-20T02:28:45;102161.75;;;17.21;100.00
23241;BME280;11789;53.482;9.862;2023-08-20T02:31:10;102153.94;;;17.18;100.00
23241;BME280;11789;53.482;9.862;2023-08-20T02:33:36;102159.19;;;17.13;100.00
23241;BME280;11789;53.482;9.862;2023-08-20T02:36:02;102153.94;;;17.16;100.00
23241;BME280;11789;53.482;9.862;2023-08-20T02:38:28;102152.22;;;17.12;100.00
23241;BME280;11789;53.482;9.862;2023-08-20T02:40:54;102147.88;;;17.11;100.00
23241;BME280;11789;53.482;9.862;2023-08-20T02:43:19;102145.28;;;17.11;100.00
23241;BME280;11789;53.482;9.862;2023-08-20T02:45:45;102145.25;;;17.14;100.00
23241;BME280;11789;53.482;9.862;2023-08-20T02:48:12;102153.97;;;17.15;100.00
23241;BME280;11789;53.482;9.862;2023-08-20T02:50:38;102153.06;;;17.19;100.00
23241;BME280;11789;53.482;9.862;2023-08-20T02:53:03;102150.44;;;17.20;100.00
23241;BME280;11789;53.482;9.862;2023-08-20T02:55:30;102154.81;;;17.20;100.00
23241;BME280;11789;53.482;9.862;2023-08-20T02:57:55;102164.41;;;17.13;100.00
23241;BME280;11789;53.482;9.862;2023-08-20T03:00:21;102160.97;;;17.08;100.00
23241;BME280;11789;53.482;9.862;2023-08-20T03:02:46;102152.28;;;17.06;100.00
23241;BME280;11789;53.482;9.862;2023-08-20T03:05:12;102158.34;;;17.08;100.00
23241;BME280;11789;53.482;9.862;2023-08-20T03:07:37;102160.09;;;17.10;100.00
23241;BME280;11789;53.482;9.862;2023-08-20T03:10:03;102159.19;;;17.15;100.00
23241;BME280;11789;53.482;9.862;2023-08-20T03:12:29;102161.78;;;17.16;100.00
23241;BME280;11789;53.482;9.862;2023-08-20T03:14:55;102161.78;;;17.18;100.00
23241;BME280;11789;53.482;9.862;2023-08-20T03:17:20;102165.25;;;17.20;100.00
23241;BME280;11789;53.482;9.862;2023-08-20T03:19:59;102169.59;;;17.21;100.00
23241;BME280;11789;53.482;9.862;2023-08-20T03:22:26;102172.22;;;17.19;100.00
23241;BME280;11789;53.482;9.862;2023-08-20T03:24:52;102162.69;;;17.12;100.00
23241;BME280;11789;53.482;9.862;2023-08-20T03:27:19;102167.12;;;17.04;100.00
23241;BME280;11789;53.482;9.862;2023-08-20T03:29:45;102168.00;;;17.00;100.00
23241;BME280;11789;53.482;9.862;2023-08-20T03:32:11;102177.56;;;16.98;100.00
23241;BME280;11789;53.482;9.862;2023-08-20T03:34:36;102174.16;;;16.86;100.00
23241;BME280;11789;53.482;9.862;2023-08-20T03:37:02;102174.22;;;16.77;100.00
23241;BME280;11789;53.482;9.862;2023-08-20T03:39:28;102169.00;;;16.77;100.00
23241;BME280;11789;53.482;9.862;2023-08-20T03:41:53;102175.09;;;16.79;100.00
23241;BME280;11789;53.482;9.862;2023-08-20T03:44:19;102180.28;;;16.82;100.00
23241;BME280;11789;53.482;9.862;2023-08-20T03:46:45;102188.12;;;16.84;100.00
23241;BME280;11789;53.482;9.862;2023-08-20T03:49:10;102195.13;;;16.79;100.00
23241;BME280;11789;53.482;9.862;2023-08-20T03:51:35;102194.25;;;16.78;100.00
23241;BME280;11789;53.482;9.862;2023-08-20T03:54:01;102192.50;;;16.83;100.00
23241;BME280;11789;53.482;9.862;2023-08-20T03:56:27;102192.47;;;16.88;100.00
23241;BME280;11789;53.482;9.862;2023-08-20T03:58:53;102199.41;;;16.91;100.00
23241;BME280;11789;53.482;9.862;2023-08-20T04:01:18;102202.91;;;16.86;100.00
23241;BME280;11789;53.482;9.862;2023-08-20T04:03:46;102197.69;;;16.86;100.00
23241;BME280;11789;53.482;9.862;2023-08-20T04:06:12;102197.69;;;16.86;100.00
23241;BME280;11789;53.482;9.862;2023-08-20T04:08:37;102200.34;;;16.80;100.00
23241;BME280;11789;53.482;9.862;2023-08-20T04:11:03;102192.50;;;16.77;100.00
23241;BME280;11789;53.482;9.862;2023-08-20T04:13:29;102195.13;;;16.76;100.00
23241;BME280;11789;53.482;9.862;2023-08-20T04:15:55;102200.38;;;16.74;100.00
23241;BME280;11789;53.482;9.862;2023-08-20T04:18:20;102207.31;;;16.78;100.00
23241;BME280;11789;53.482;9.862;2023-08-20T04:20:46;102202.94;;;16.82;100.00
23241;BME280;11789;53.482;9.862;2023-08-20T04:23:11;102205.53;;;16.82;100.00
23241;BME280;11789;53.482;9.862;2023-08-20T04:25:37;102209.91;;;16.77;100.00
23241;BME280;11789;53.482;9.862;2023-08-20T04:28:02;102215.16;;;16.69;100.00
23241;BME280;11789;53.482;9.862;2023-08-20T04:30:28;102215.16;;;16.69;100.00
23241;BME280;11789;53.482;9.862;2023-08-20T04:32:53;102216.87;;;16.70;100.00
23241;BME280;11789;53.482;9.862;2023-08-20T04:35:18;102211.69;;;16.78;100.00
23241;BME280;11789;53.482;9.862;2023-08-20T04:37:44;102214.25;;;16.82;100.00
23241;BME280;11789;53.482;9.862;2023-08-20T04:40:10;102209.00;;;16.87;100.00
23241;BME280;11789;53.482;9.862;2023-08-20T04:42:36;102210.75;;;16.88;100.00
23241;BME280;11789;53.482;9.862;2023-08-20T04:45:01;102209.84;;;16.91;100.00
23241;BME280;11789;53.482;9.862;2023-08-20T04:47:27;102209.00;;;16.93;100.00
23241;BME280;11789;53.482;9.862;2023-08-20T04:49:52;102216.78;;;16.99;100.00
23241;BME280;11789;53.482;9.862;2023-08-20T04:52:18;102207.16;;;17.04;100.00
23241;BME280;11789;53.482;9.862;2023-08-20T04:54:46;102208.88;;;17.07;100.00
23241;BME280;11789;53.482;9.862;2023-08-20T04:57:11;102209.81;;;16.97;100.00
23241;BME280;11789;53.482;9.862;2023-08-20T04:59:36;102203.72;;;16.96;100.00
23241;BME280;11789;53.482;9.862;2023-08-20T05:02:02;102209.00;;;16.89;100.00
23241;BME280;11789;53.482;9.862;2023-08-20T05:04:28;102203.81;;;16.79;100.00
23241;BME280;11789;53.482;9.862;2023-08-20T05:06:53;102221.25;;;16.74;100.00
23241;BME280;11789;53.482;9.862;2023-08-20T05:09:18;102216.87;;;16.76;100.00
23241;BME280;11789;53.482;9.862;2023-08-20T05:11:44;102216.00;;;16.80;100.00
23241;BME280;11789;53.482;9.862;2023-08-20T05:14:09;102212.53;;;16.78;100.00
23241;BME280;11789;53.482;9.862;2023-08-20T05:16:35;102203.00;;;16.73;100.00
23241;BME280;11789;53.482;9.862;2023-08-20T05:19:00;102217.78;;;16.69;100.00
23241;BME280;11789;53.482;9.862;2023-08-20T05:21:25;102214.28;;;16.66;100.00
23241;BME280;11789;53.482;9.862;2023-08-20T05:23:51;102213.44;;;16.60;100.00
23241;BME280;11789;53.482;9.862;2023-08-20T05:26:16;102201.28;;;16.55;100.00
23241;BME280;11789;53.482;9.862;2023-08-20T05:28:42;102190.88;;;16.53;100.00
23241;BME280;11789;53.482;9.862;2023-08-20T05:31:07;102176.88;;;16.62;100.00
23241;BME280;11789;53.482;9.862;2023-08-20T05:33:33;102167.28;;;16.75;100.00
23241;BME280;11789;53.482;9.862;2023-08-20T05:35:59;102152.47;;;16.78;100.00
23241;BME280;11789;53.482;9.862;2023-08-20T05:38:25;102169.81;;;16.93;100.00
23241;BME280;11789;53.482;9.862;2023-08-20T05:40:51;102173.13;;;17.12;100.00
23241;BME280;11789;53.482;9.862;2023-08-20T05:43:16;102182.66;;;17.24;100.00
23241;BME280;11789;53.482;9.862;2023-08-20T05:45:42;102186.00;;;17.38;100.00
23241;BME280;11789;53.482;9.862;2023-08-20T05:48:07;102192.03;;;17.51;100.00
23241;BME280;11789;53.482;9.862;2023-08-20T05:50:33;102193.63;;;17.67;100.00
23241;BME280;11789;53.482;9.862;2023-08-20T05:52:58;102195.34;;;17.74;100.00
23241;BME280;11789;53.482;9.862;2023-08-20T05:55:24;102199.63;;;17.81;100.00
23241;BME280;11789;53.482;9.862;2023-08-20T05:57:49;102206.53;;;17.90;100.00
23241;BME280;11789;53.482;9.862;2023-08-20T06:00:15;102209.09;;;17.95;100.00
23241;BME280;11789;53.482;9.862;2023-08-20T06:02:43;102209.91;;;18.01;100.00
23241;BME280;11789;53.482;9.862;2023-08-20T06:05:09;102207.31;;;18.00;100.00
23241;BME280;11789;53.482;9.862;2023-08-20T06:07:34;102211.66;;;17.98;100.00
23241;BME280;11789;53.482;9.862;2023-08-20T06:10:00;102208.12;;;18.05;100.00
23241;BME280;11789;53.482;9.862;2023-08-20T06:12:25;102207.25;;;18.03;100.00
23241;BME280;11789;53.482;9.862;2023-08-20T06:14:51;102202.94;;;18.00;100.00
23241;BME280;11789;53.482;9.862;2023-08-20T06:17:16;102207.31;;;18.00;100.00
23241;BME280;11789;53.482;9.862;2023-08-20T06:19:42;102213.41;;;17.99;100.00
23241;BME280;11789;53.482;9.862;2023-08-20T06:22:07;102210.75;;;18.05;100.00
23241;BME280;11789;53.482;9.862;2023-08-20T06:24:33;102215.03;;;18.09;100.00
23241;BME280;11789;53.482;9.862;2023-08-20T06:26:58;102201.94;;;18.12;100.00
23241;BME280;11789;53.482;9.862;2023-08-20T06:29:23;102206.25;;;18.16;100.00
23241;BME280;11789;53.482;9.862;2023-08-20T06:31:49;102208.06;;;18.09;100.00
23241;BME280;11789;53.482;9.862;2023-08-20T06:34:15;102205.47;;;18.06;100.00
23241;BME280;11789;53.482;9.862;2023-08-20T06:36:41;102201.94;;;18.09;100.00
23241;BME280;11789;53.482;9.862;2023-08-20T06:39:06;102220.25;;;18.12;100.00
23241;BME280;11789;53.482;9.862;2023-08-20T06:41:32;102221.16;;;18.11;100.00
23241;BME280;11789;53.482;9.862;2023-08-20T06:43:57;102228.09;;;18.15;100.00
23241;BME280;11789;53.482;9.862;2023-08-20T06:46:23;102230.69;;;18.17;100.00
23241;BME280;11789;53.482;9.862;2023-08-20T06:48:48;102228.94;;;18.14;100.00
23241;BME280;11789;53.482;9.862;2023-08-20T06:51:14;102230.63;;;18.20;100.00
23241;BME280;11789;53.482;9.862;2023-08-20T06:53:43;102225.34;;;18.26;100.00
23241;BME280;11789;53.482;9.862;2023-08-20T06:56:08;102224.44;;;18.28;100.00
23241;BME280;11789;53.482;9.862;2023-08-20T06:58:37;102225.25;;;18.33;100.00
23241;BME280;11789;53.482;9.862;2023-08-20T07:01:03;102237.47;;;18.36;100.00
23241;BME280;11789;53.482;9.862;2023-08-20T07:03:42;102233.09;;;18.36;100.00
23241;BME280;11789;53.482;9.862;2023-08-20T07:06:09;102243.50;;;18.39;100.00
23241;BME280;11789;53.482;9.862;2023-08-20T07:08:35;102242.66;;;18.40;100.00
23241;BME280;11789;53.482;9.862;2023-08-20T07:11:00;102237.37;;;18.42;100.00
23241;BME280;11789;53.482;9.862;2023-08-20T07:13:26;102241.75;;;18.41;100.00
23241;BME280;11789;53.482;9.862;2023-08-20T07:15:52;102243.47;;;18.42;100.00
23241;BME280;11789;53.482;9.862;2023-08-20T07:18:17;102242.59;;;18.44;100.00
23241;BME280;11789;53.482;9.862;2023-08-20T07:20:43;102242.59;;;18.44;100.00
23241;BME280;11789;53.482;9.862;2023-08-20T07:23:10;102242.59;;;18.45;100.00
23241;BME280;11789;53.482;9.862;2023-08-20T07:25:39;102247.81;;;18.47;100.00
23241;BME280;11789;53.482;9.862;2023-08-20T07:28:06;102252.16;;;18.48;100.00
23241;BME280;11789;53.482;9.862;2023-08-20T07:30:32;102253.94;;;18.46;100.00
23241;BME280;11789;53.482;9.862;2023-08-20T07:32:58;102253.94;;;18.46;100.00
23241;BME280;11789;53.482;9.862;2023-08-20T07:35:24;102257.37;;;18.51;100.00
23241;BME280;11789;53.482;9.862;2023-08-20T07:37:49;102259.03;;;18.55;100.00
23241;BME280;11789;53.482;9.862;2023-08-20T07:40:15;102255.44;;;18.63;100.00
23241;BME280;11789;53.482;9.862;2023-08-20T07:42:41;102245.78;;;18.70;100.00
23241;BME280;11789;53.482;9.862;2023-08-20T07:45:07;102257.06;;;18.75;100.00
23241;BME280;11789;53.482;9.862;2023-08-20T07:47:39;102250.91;;;18.81;100.00
23241;BME280;11789;53.482;9.862;2023-08-20T07:50:05;102249.12;;;18.83;100.00
23241;BME280;11789;53.482;9.862;2023-08-20T07:52:32;102256.06;;;18.85;100.00
23241;BME280;11789;53.482;9.862;2023-08-20T07:54:57;102258.69;;;18.85;100.00
23241;BME280;11789;53.482;9.862;2023-08-20T07:57:23;102252.62;;;18.83;100.00
23241;BME280;11789;53.482;9.862;2023-08-20T07:59:49;102258.69;;;18.85;100.00
23241;BME280;11789;53.482;9.862;2023-08-20T08:02:15;102259.56;;;18.87;100.00
23241;BME280;11789;53.482;9.862;2023-08-20T08:04:42;102256.87;;;18.90;100.00
23241;BME280;11789;53.482;9.862;2023-08-20T08:07:09;102260.41;;;18.89;100.00
23241;BME280;11789;53.482;9.862;2023-08-20T08:09:34;102264.78;;;18.89;100.00
23241;BME280;11789;53.482;9.862;2023-08-20T08:12:00;102273.50;;;18.89;100.00
23241;BME280;11789;53.482;9.862;2023-08-20T08:14:26;102276.94;;;18.95;100.00
23241;BME280;11789;53.482;9.862;2023-08-20T08:16:51;102276.03;;;18.96;100.00
23241;BME280;11789;53.482;9.862;2023-08-20T08:19:17;102272.56;;;18.97;100.00
23241;BME280;11789;53.482;9.862;2023-08-20T08:21:44;102275.97;;;19.02;100.00
23241;BME280;11789;53.482;9.862;2023-08-20T08:24:10;102274.16;;;19.05;100.00
23241;BME280;11789;53.482;9.862;2023-08-20T08:26:36;102268.84;;;19.10;100.00
23241;BME280;11789;53.482;9.862;2023-08-20T08:29:05;102271.44;;;19.13;100.00
23241;BME280;11789;53.482;9.862;2023-08-20T08:31:31;102269.63;;;19.18;100.00
23241;BME280;11789;53.482;9.862;2023-08-20T08:33:57;102271.25;;;19.25;100.00
23241;BME280;11789;53.482;9.862;2023-08-20T08:36:23;102272.97;;;19.29;100.00
23241;BME280;11789;53.482;9.862;2023-08-20T08:38:52;102280.69;;;19.38;100.00
23241;BME280;11789;53.482;9.862;2023-08-20T08:41:21;102282.31;;;19.47;100.00
23241;BME280;11789;53.482;9.862;2023-08-20T08:43:48;102277.87;;;19.52;100.00
23241;BME280;11789;53.482;9.862;2023-08-20T08:46:14;102273.38;;;19.59;100.00
23241;BME280;11789;53.482;9.862;2023-08-20T08:48:43;102276.00;;;19.62;100.00
23241;BME280;11789;53.482;9.862;2023-08-20T08:51:09;102279.44;;;19.65;100.00
23241;BME280;11789;53.482;9.862;2023-08-20T08:53:35;102287.19;;;19.73;100.00
23241;BME280;11789;53.482;9.862;2023-08-20T08:56:01;102281.00;;;19.77;100.00
23241;BME280;11789;53.482;9.862;2023-08-20T08:58:28;102284.44;;;19.81;100.00
23241;BME280;11789;53.482;9.862;2023-08-20T09:00:53;102280.81;;;19.86;100.00
23241;BME280;11789;53.482;9.862;2023-08-20T09:03:19;102284.25;;;19.91;100.00
23241;BME280;11789;53.482;9.862;2023-08-20T09:05:46;102289.41;;;19.98;100.00
23241;BME280;11789;53.482;9.862;2023-08-20T09:08:22;102278.84;;;20.02;100.00
23241;BME280;11789;53.482;9.862;2023-08-20T09:10:51;102287.50;;;20.07;100.00
23241;BME280;11789;53.482;9.862;2023-08-20T09:13:18;102290.00;;;20.12;100.00
23241;BME280;11789;53.482;9.862;2023-08-20T09:15:50;102288.91;;;20.25;100.00
23241;BME280;11789;53.482;9.862;2023-08-20T09:18:17;102283.56;;;20.30;100.00
23241;BME280;11789;53.482;9.862;2023-08-20T09:20:42;102288.88;;;20.27;100.00
23241;BME280;11789;53.482;9.862;2023-08-20T09:23:11;102290.56;;;20.31;100.00
23241;BME280;11789;53.482;9.862;2023-08-20T09:25:38;102285.25;;;20.34;100.00
23241;BME280;11789;53.482;9.862;2023-08-20T09:28:04;102283.38;;;20.40;100.00
23241;BME280;11789;53.482;9.862;2023-08-20T09:30:29;102282.31;;;20.51;100.00
23241;BME280;11789;53.482;9.862;2023-08-20T09:33:07;102286.47;;;20.62;100.00
23241;BME280;11789;53.482;9.862;2023-08-20T09:35:33;102279.25;;;20.73;100.00
23241;BME280;11789;53.482;9.862;2023-08-20T09:38:03;102267.66;;;20.82;100.00
23241;BME280;11789;53.482;9.862;2023-08-20T09:40:30;102280.78;;;20.84;100.00
23241;BME280;11789;53.482;9.862;2023-08-20T09:42:56;102276.25;;;20.90;100.00
23241;BME280;11789;53.482;9.862;2023-08-20T09:45:24;102270.06;;;20.93;100.00
23241;BME280;11789;53.482;9.862;2023-08-20T09:47:54;102270.03;;;20.94;100.00
23241;BME280;11789;53.482;9.862;2023-08-20T09:50:21;102275.16;;;21.01;100.00
23241;BME280;11789;53.482;9.862;2023-08-20T09:53:06;102275.94;;;21.06;100.00
23241;BME280;11789;53.482;9.862;2023-08-20T09:55:38;102260.91;;;21.11;100.00
23241;BME280;11789;53.482;9.862;2023-08-20T09:58:05;102267.00;;;21.13;100.00
23241;BME280;11789;53.482;9.862;2023-08-20T10:00:32;102266.06;;;21.15;100.00
23241;BME280;11789;53.482;9.862;2023-08-20T10:02:58;102259.84;;;21.19;100.00
23241;BME280;11789;53.482;9.862;2023-08-20T10:05:25;102266.84;;;21.20;100.00
23241;BME280;11789;53.482;9.862;2023-08-20T10:07:50;102257.22;;;21.19;100.00
23241;BME280;11789;53.482;9.862;2023-08-20T10:10:17;102261.63;;;21.19;100.00
23241;BME280;11789;53.482;9.862;2023-08-20T10:12:44;102252.81;;;21.20;100.00
23241;BME280;11789;53.482;9.862;2023-08-20T10:15:14;102260.63;;;21.24;100.00
23241;BME280;11789;53.482;9.862;2023-08-20T10:17:41;102247.34;;;21.29;100.00
23241;BME280;11789;53.482;9.862;2023-08-20T10:20:08;102248.19;;;21.31;100.00
23241;BME280;11789;53.482;9.862;2023-08-20T10:22:36;102248.22;;;21.30;100.00
23241;BME280;11789;53.482;9.862;2023-08-20T10:25:08;102253.47;;;21.31;100.00
23241;BME280;11789;53.482;9.862;2023-08-20T10:27:36;102258.72;;;21.31;100.00
23241;BME280;11789;53.482;9.862;2023-08-20T10:30:08;102251.63;;;21.35;100.00
23241;BME280;11789;53.482;9.862;2023-08-20T10:32:46;102250.53;;;21.43;99.44
23241;BME280;11789;53.482;9.862;2023-08-20T10:35:12;102250.31;;;21.53;98.69
23241;BME280;11789;53.482;9.862;2023-08-20T10:37:38;102248.44;;;21.58;98.55
23241;BME280;11789;53.482;9.862;2023-08-20T10:40:06;102244.84;;;21.62;98.82
23241;BME280;11789;53.482;9.862;2023-08-20T10:42:32;102242.94;;;21.67;98.26
23241;BME280;11789;53.482;9.862;2023-08-20T10:45:05;102247.53;;;21.59;98.20
23241;BME280;11789;53.482;9.862;2023-08-20T10:47:47;102242.41;;;21.53;100.00
23241;BME280;11789;53.482;9.862;2023-08-20T10:50:18;102239.75;;;21.54;99.59
23241;BME280;11789;53.482;9.862;2023-08-20T10:52:49;102249.44;;;21.52;98.43
23241;BME280;11789;53.482;9.862;2023-08-20T10:55:15;102246.66;;;21.60;98.50
23241;BME280;11789;53.482;9.862;2023-08-20T10:57:40;102249.12;;;21.64;96.53
23241;BME280;11789;53.482;9.862;2023-08-20T11:00:06;102247.25;;;21.69;96.74
23241;BME280;11789;53.482;9.862;2023-08-20T11:02:38;102240.91;;;21.78;96.54
23241;BME280;11789;53.482;9.862;2023-08-20T11:05:16;102243.34;;;21.86;95.56
23241;BME280;11789;53.482;9.862;2023-08-20T11:07:44;102258.19;;;21.88;94.93
23241;BME280;11789;53.482;9.862;2023-08-20T11:10:13;102259.03;;;21.90;94.21
23241;BME280;11789;53.482;9.862;2023-08-20T11:12:39;102256.59;;;21.83;95.82
23241;BME280;11789;53.482;9.862;2023-08-20T11:15:05;102259.31;;;21.80;97.22
23241;BME280;11789;53.482;9.862;2023-08-20T11:17:31;102255.84;;;21.77;97.61
23241;BME280;11789;53.482;9.862;2023-08-20T11:19:56;102270.78;;;21.77;96.92
23241;BME280;11789;53.482;9.862;2023-08-20T11:22:22;102261.91;;;21.81;96.19
23241;BME280;11789;53.482;9.862;2023-08-20T11:24:47;102261.09;;;21.77;97.04
23241;BME280;11789;53.482;9.862;2023-08-20T11:27:13;102271.69;;;21.74;97.66
23241;BME280;11789;53.482;9.862;2023-08-20T11:29:42;102267.28;;;21.76;96.56
23241;BME280;11789;53.482;9.862;2023-08-20T11:32:09;102268.94;;;21.79;96.21
23241;BME280;11789;53.482;9.862;2023-08-20T11:34:35;102262.81;;;21.79;95.43
23241;BME280;11789;53.482;9.862;2023-08-20T11:37:01;102264.41;;;21.86;95.19
23241;BME280;11789;53.482;9.862;2023-08-20T11:39:29;102265.06;;;21.94;95.31
23241;BME280;11789;53.482;9.862;2023-08-20T11:41:54;102267.56;;;22.00;95.72
23241;BME280;11789;53.482;9.862;2023-08-20T11:44:21;102263.00;;;22.07;96.43
23241;BME280;11789;53.482;9.862;2023-08-20T11:46:47;102266.47;;;22.07;96.96
23241;BME280;11789;53.482;9.862;2023-08-20T11:49:13;102260.53;;;21.99;96.33
23241;BME280;11789;53.482;9.862;2023-08-20T11:51:41;102263.16;;;22.00;95.45
23241;BME280;11789;53.482;9.862;2023-08-20T11:54:11;102261.38;;;22.01;95.75
23241;BME280;11789;53.482;9.862;2023-08-20T11:56:50;102258.88;;;21.96;96.25
23241;BME280;11789;53.482;9.862;2023-08-20T11:59:19;102257.03;;;22.00;95.06
23241;BME280;11789;53.482;9.862;2023-08-20T12:01:52;102257.63;;;22.10;95.05
23241;BME280;11789;53.482;9.862;2023-08-20T12:04:23;102251.09;;;22.24;91.25
23241;BME280;11789;53.482;9.862;2023-08-20T12:07:05;102247.25;;;22.38;93.69
23241;BME280;11789;53.482;9.862;2023-08-20T12:09:31;102255.62;;;22.52;90.76
23241;BME280;11789;53.482;9.862;2023-08-20T12:11:57;102264.22;;;22.59;91.05
23241;BME280;11789;53.482;9.862;2023-08-20T12:14:23;102254.47;;;22.61;89.80
23241;BME280;11789;53.482;9.862;2023-08-20T12:16:49;102250.84;;;22.65;87.19
23241;BME280;11789;53.482;9.862;2023-08-20T12:19:16;102253.34;;;22.71;86.76
23241;BME280;11789;53.482;9.862;2023-08-20T12:21:41;102254.09;;;22.74;86.88
23241;BME280;11789;53.482;9.862;2023-08-20T12:24:09;102248.78;;;22.76;88.55
23241;BME280;11789;53.482;9.862;2023-08-20T12:26:38;102248.47;;;22.85;87.48
23241;BME280;11789;53.482;9.862;2023-08-20T12:29:04;102251.81;;;22.93;88.90
23241;BME280;11789;53.482;9.862;2023-08-20T12:31:31;102252.81;;;22.89;89.43
23241;BME280;11789;53.482;9.862;2023-08-20T12:33:56;102249.41;;;22.84;87.75
23241;BME280;11789;53.482;9.862;2023-08-20T12:36:22;102241.50;;;22.84;88.26
23241;BME280;11789;53.482;9.862;2023-08-20T12:38:47;102244.25;;;22.81;89.53
23241;BME280;11789;53.482;9.862;2023-08-20T12:41:13;102247.16;;;22.72;91.18
23241;BME280;11789;53.482;9.862;2023-08-20T12:43:38;102250.78;;;22.68;90.35
23241;BME280;11789;53.482;9.862;2023-08-20T12:46:04;102241.75;;;22.75;87.75